sensor_id;sensor_type;location;lat;lon;timestamp;temperature;humidity
27413;DHT22;14871;52.702;5.230;2023-05-07T00:01:50;18.40;99.90
27413;DHT22;14871;52.702;5.230;2023-05-07T00:04:15;18.40;99.90
27413;DHT22;14871;52.702;5.230;2023-05-07T00:06:41;18.40;99.90
27413;DHT22;14871;52.702;5.230;2023-05-07T00:09:07;18.20;99.90
27413;DHT22;14871;52.702;5.230;2023-05-07T00:11:33;18.10;99.90
27413;DHT22;14871;52.702;5.230;2023-05-07T00:13:59;17.90;99.90
27413;DHT22;14871;52.702;5.230;2023-05-07T00:16:25;17.90;99.90
27413;DHT22;14871;52.702;5.230;2023-05-07T00:18:51;17.70;99.90
27413;DHT22;14871;52.702;5.230;2023-05-07T00:21:17;17.70;99.90
27413;DHT22;14871;52.702;5.230;2023-05-07T00:23:43;17.60;99.90
27413;DHT22;14871;52.702;5.230;2023-05-07T00:26:09;17.60;99.90
27413;DHT22;14871;52.702;5.230;2023-05-07T00:28:35;17.70;99.90
27413;DHT22;14871;52.702;5.230;2023-05-07T00:31:00;17.80;99.90
27413;DHT22;14871;52.702;5.230;2023-05-07T00:33:26;17.80;99.90
27413;DHT22;14871;52.702;5.230;2023-05-07T00:35:52;17.80;99.90
27413;DHT22;14871;52.702;5.230;2023-05-07T00:38:19;17.90;99.90
27413;DHT22;14871;52.702;5.230;2023-05-07T00:40:46;18.00;99.90
27413;DHT22;14871;52.702;5.230;2023-05-07T00:43:12;17.80;99.90
27413;DHT22;14871;52.702;5.230;2023-05-07T00:45:38;17.70;99.90
27413;DHT22;14871;52.702;5.230;2023-05-07T00:48:05;17.70;99.90
27413;DHT22;14871;52.702;5.230;2023-05-07T00:50:31;17.80;99.90
27413;DHT22;14871;52.702;5.230;2023-05-07T00:52:58;17.80;99.90
27413;DHT22;14871;52.702;5.230;2023-05-07T00:55:25;17.90;99.90
27413;DHT22;14871;52.702;5.230;2023-05-07T00:57:51;17.80;99.90
27413;DHT22;14871;52.702;5.230;2023-05-07T01:00:17;17.90;99.90
27413;DHT22;14871;52.702;5.230;2023-05-07T01:02:44;18.00;99.90
27413;DHT22;14871;52.702;5.230;2023-05-07T01:05:13;18.00;99.90
27413;DHT22;14871;52.702;5.230;2023-05-07T01:07:40;17.90;99.90
27413;DHT22;14871;52.702;5.230;2023-05-07T01:10:08;17.90;99.90
27413;DHT22;14871;52.702;5.230;2023-05-07T01:12:36;17.80;99.90
27413;DHT22;14871;52.702;5.230;2023-05-07T01:15:03;17.90;99.90
27413;DHT22;14871;52.702;5.230;2023-05-07T01:17:32;17.80;99.90
27413;DHT22;14871;52.702;5.230;2023-05-07T01:19:59;17.80;99.90
27413;DHT22;14871;52.702;5.230;2023-05-07T01:22:39;17.80;99.90
27413;DHT22;14871;52.702;5.230;2023-05-07T01:25:06;17.90;99.90
27413;DHT22;14871;52.702;5.230;2023-05-07T01:27:33;17.80;99.90
27413;DHT22;14871;52.702;5.230;2023-05-07T01:29:59;17.80;99.90
27413;DHT22;14871;52.702;5.230;2023-05-07T01:32:43;17.80;99.90
27413;DHT22;14871;52.702;5.230;2023-05-07T01:35:11;17.90;99.90
27413;DHT22;14871;52.702;5.230;2023-05-07T01:37:39;17.90;99.90
27413;DHT22;14871;52.702;5.230;2023-05-07T01:40:05;17.80;99.90
27413;DHT22;14871;52.702;5.230;2023-05-07T01:42:32;17.90;99.90
27413;DHT22;14871;52.702;5.230;2023-05-07T01:44:58;17.80;99.90
27413;DHT22;14871;52.702;5.230;2023-05-07T01:47:24;17.70;99.90
27413;DHT22;14871;52.702;5.230;2023-05-07T01:49:50;17.80;99.90
27413;DHT22;14871;52.702;5.230;2023-05-07T01:52:16;17.80;99.90
27413;DHT22;14871;52.702;5.230;2023-05-07T01:54:41;17.80;99.90
27413;DHT22;14871;52.702;5.230;2023-05-07T01:57:08;17.60;99.90
27413;DHT22;14871;52.702;5.230;2023-05-07T01:59:33;17.70;99.90
27413;DHT22;14871;52.702;5.230;2023-05-07T02:01:59;17.70;99.90
27413;DHT22;14871;52.702;5.230;2023-05-07T02:04:26;17.80;99.90
27413;DHT22;14871;52.702;5.230;2023-05-07T02:06:51;17.80;99.90
27413;DHT22;14871;52.702;5.230;2023-05-07T02:09:18;17.80;99.90
27413;DHT22;14871;52.702;5.230;2023-05-07T02:11:44;17.70;99.90
27413;DHT22;14871;52.702;5.230;2023-05-07T02:14:10;17.70;99.90
27413;DHT22;14871;52.702;5.230;2023-05-07T02:16:36;17.70;99.90
27413;DHT22;14871;52.702;5.230;2023-05-07T02:19:01;17.70;99.90
27413;DHT22;14871;52.702;5.230;2023-05-07T02:21:27;17.70;99.90
27413;DHT22;14871;52.702;5.230;2023-05-07T02:23:53;17.80;99.90
27413;DHT22;14871;52.702;5.230;2023-05-07T02:26:18;17.70;99.90
27413;DHT22;14871;52.702;5.230;2023-05-07T02:28:44;17.70;99.90
27413;DHT22;14871;52.702;5.230;2023-05-07T02:31:10;17.70;99.90
27413;DHT22;14871;52.702;5.230;2023-05-07T02:33:35;17.70;99.90
27413;DHT22;14871;52.702;5.230;2023-05-07T02:36:11;17.80;99.90
27413;DHT22;14871;52.702;5.230;2023-05-07T02:38:37;17.80;99.90
27413;DHT22;14871;52.702;5.230;2023-05-07T02:41:03;17.80;99.90
27413;DHT22;14871;52.702;5.230;2023-05-07T02:43:29;17.80;99.90
27413;DHT22;14871;52.702;5.230;2023-05-07T02:46:08;17.80;99.90
27413;DHT22;14871;52.702;5.230;2023-05-07T02:48:34;17.80;99.90
27413;DHT22;14871;52.702;5.230;2023-05-07T02:51:01;17.80;99.90
27413;DHT22;14871;52.702;5.230;2023-05-07T02:53:27;17.80;99.90
27413;DHT22;14871;52.702;5.230;2023-05-07T02:55:54;17.80;99.90
27413;DHT22;14871;52.702;5.230;2023-05-07T02:58:20;17.90;99.90
27413;DHT22;14871;52.702;5.230;2023-05-07T03:00:45;17.70;99.90
27413;DHT22;14871;52.702;5.230;2023-05-07T03:03:11;17.70;99.90
27413;DHT22;14871;52.702;5.230;2023-05-07T03:05:37;17.70;99.90
27413;DHT22;14871;52.702;5.230;2023-05-07T03:08:03;17.70;99.90
27413;DHT22;14871;52.702;5.230;2023-05-07T03:10:29;17.70;99.90
27413;DHT22;14871;52.702;5.230;2023-05-07T03:12:55;17.70;99.90
27413;DHT22;14871;52.702;5.230;2023-05-07T03:15:21;17.70;99.90
27413;DHT22;14871;52.702;5.230;2023-05-07T03:17:50;17.70;99.90
27413;DHT22;14871;52.702;5.230;2023-05-07T03:20:16;17.70;99.90
27413;DHT22;14871;52.702;5.230;2023-05-07T03:22:41;17.80;99.90
27413;DHT22;14871;52.702;5.230;2023-05-07T03:25:08;17.80;99.90
27413;DHT22;14871;52.702;5.230;2023-05-07T03:27:34;17.70;99.90
27413;DHT22;14871;52.702;5.230;2023-05-07T03:30:00;17.80;99.90
27413;DHT22;14871;52.702;5.230;2023-05-07T03:32:25;17.80;99.90
27413;DHT22;14871;52.702;5.230;2023-05-07T03:34:51;17.70;99.90
27413;DHT22;14871;52.702;5.230;2023-05-07T03:37:17;17.80;99.90
27413;DHT22;14871;52.702;5.230;2023-05-07T03:39:43;17.70;99.90
27413;DHT22;14871;52.702;5.230;2023-05-07T03:42:08;17.60;99.90
27413;DHT22;14871;52.702;5.230;2023-05-07T03:44:34;17.60;99.90
27413;DHT22;14871;52.702;5.230;2023-05-07T03:47:02;17.70;99.90
27413;DHT22;14871;52.702;5.230;2023-05-07T03:49:28;17.60;99.90
27413;DHT22;14871;52.702;5.230;2023-05-07T03:51:53;17.50;99.90
27413;DHT22;14871;52.702;5.230;2023-05-07T03:54:19;17.60;99.90
27413;DHT22;14871;52.702;5.230;2023-05-07T03:56:45;17.70;99.90
27413;DHT22;14871;52.702;5.230;2023-05-07T03:59:11;17.60;99.90
27413;DHT22;14871;52.702;5.230;2023-05-07T04:01:37;17.60;99.90
27413;DHT22;14871;52.702;5.230;2023-05-07T04:04:02;17.60;99.90
27413;DHT22;14871;52.702;5.230;2023-05-07T04:06:29;17.60;99.90
27413;DHT22;14871;52.702;5.230;2023-05-07T04:08:55;17.60;99.90
27413;DHT22;14871;52.702;5.230;2023-05-07T04:11:21;17.50;99.90
27413;DHT22;14871;52.702;5.230;2023-05-07T04:13:46;17.60;99.90
27413;DHT22;14871;52.702;5.230;2023-05-07T04:16:12;17.60;99.90
27413;DHT22;14871;52.702;5.230;2023-05-07T04:18:38;17.60;99.90
27413;DHT22;14871;52.702;5.230;2023-05-07T04:21:04;17.70;99.90
27413;DHT22;14871;52.702;5.230;2023-05-07T04:23:29;17.70;99.90
27413;DHT22;14871;52.702;5.230;2023-05-07T04:25:55;17.60;99.90
27413;DHT22;14871;52.702;5.230;2023-05-07T04:28:21;17.50;99.90
27413;DHT22;14871;52.702;5.230;2023-05-07T04:30:47;17.50;99.90
27413;DHT22;14871;52.702;5.230;2023-05-07T04:33:14;17.40;99.90
27413;DHT22;14871;52.702;5.230;2023-05-07T04:35:41;17.40;99.90
27413;DHT22;14871;52.702;5.230;2023-05-07T04:38:07;17.30;99.90
27413;DHT22;14871;52.702;5.230;2023-05-07T04:40:32;17.30;99.90
27413;DHT22;14871;52.702;5.230;2023-05-07T04:42:58;17.40;99.90
27413;DHT22;14871;52.702;5.230;2023-05-07T04:45:23;17.10;99.90
27413;DHT22;14871;52.702;5.230;2023-05-07T04:47:49;17.20;99.90
27413;DHT22;14871;52.702;5.230;2023-05-07T04:50:15;17.20;99.90
27413;DHT22;14871;52.702;5.230;2023-05-07T04:52:41;17.30;99.90
27413;DHT22;14871;52.702;5.230;2023-05-07T04:55:06;17.00;99.90
27413;DHT22;14871;52.702;5.230;2023-05-07T04:57:33;16.80;99.90
27413;DHT22;14871;52.702;5.230;2023-05-07T04:59:58;17.00;99.90
27413;DHT22;14871;52.702;5.230;2023-05-07T05:02:24;17.00;99.90
27413;DHT22;14871;52.702;5.230;2023-05-07T05:04:50;16.90;99.90
27413;DHT22;14871;52.702;5.230;2023-05-07T05:07:16;16.90;99.90
27413;DHT22;14871;52.702;5.230;2023-05-07T05:09:41;17.00;99.90
27413;DHT22;14871;52.702;5.230;2023-05-07T05:12:07;17.00;99.90
27413;DHT22;14871;52.702;5.230;2023-05-07T05:14:33;17.00;99.90
27413;DHT22;14871;52.702;5.230;2023-05-07T05:16:58;16.90;99.90
27413;DHT22;14871;52.702;5.230;2023-05-07T05:19:24;16.90;99.90
27413;DHT22;14871;52.702;5.230;2023-05-07T05:21:50;16.90;99.90
27413;DHT22;14871;52.702;5.230;2023-05-07T05:24:15;17.00;99.90
27413;DHT22;14871;52.702;5.230;2023-05-07T05:26:41;17.00;99.90
27413;DHT22;14871;52.702;5.230;2023-05-07T05:29:07;17.00;99.90
27413;DHT22;14871;52.702;5.230;2023-05-07T05:31:33;17.10;99.90
27413;DHT22;14871;52.702;5.230;2023-05-07T05:33:59;17.20;99.90
27413;DHT22;14871;52.702;5.230;2023-05-07T05:36:24;17.10;99.90
27413;DHT22;14871;52.702;5.230;2023-05-07T05:38:51;17.00;99.90
27413;DHT22;14871;52.702;5.230;2023-05-07T05:41:16;17.00;99.90
27413;DHT22;14871;52.702;5.230;2023-05-07T05:43:42;16.80;99.90
27413;DHT22;14871;52.702;5.230;2023-05-07T05:46:08;16.90;99.90
27413;DHT22;14871;52.702;5.230;2023-05-07T05:48:36;16.80;99.90
27413;DHT22;14871;52.702;5.230;2023-05-07T05:51:02;16.90;99.90
27413;DHT22;14871;52.702;5.230;2023-05-07T05:53:27;17.00;99.90
27413;DHT22;14871;52.702;5.230;2023-05-07T05:55:53;17.10;99.90
27413;DHT22;14871;52.702;5.230;2023-05-07T05:58:19;17.10;99.90
27413;DHT22;14871;52.702;5.230;2023-05-07T06:00:45;17.10;99.90
27413;DHT22;14871;52.702;5.230;2023-05-07T06:03:11;17.00;99.90
27413;DHT22;14871;52.702;5.230;2023-05-07T06:05:36;17.20;99.90
27413;DHT22;14871;52.702;5.230;2023-05-07T06:08:02;17.10;99.90
27413;DHT22;14871;52.702;5.230;2023-05-07T06:10:28;17.20;99.90
27413;DHT22;14871;52.702;5.230;2023-05-07T06:12:55;17.00;99.90
27413;DHT22;14871;52.702;5.230;2023-05-07T06:15:20;17.10;99.90
27413;DHT22;14871;52.702;5.230;2023-05-07T06:17:46;17.10;99.90
27413;DHT22;14871;52.702;5.230;2023-05-07T06:20:12;17.00;99.90
27413;DHT22;14871;52.702;5.230;2023-05-07T06:22:37;17.10;99.90
27413;DHT22;14871;52.702;5.230;2023-05-07T06:25:03;17.10;99.90
27413;DHT22;14871;52.702;5.230;2023-05-07T06:27:29;16.90;99.90
27413;DHT22;14871;52.702;5.230;2023-05-07T06:29:55;16.80;99.90
27413;DHT22;14871;52.702;5.230;2023-05-07T06:32:20;16.90;99.90
27413;DHT22;14871;52.702;5.230;2023-05-07T06:34:46;16.80;99.90
27413;DHT22;14871;52.702;5.230;2023-05-07T06:37:12;17.00;99.90
27413;DHT22;14871;52.702;5.230;2023-05-07T06:39:37;16.90;99.90
27413;DHT22;14871;52.702;5.230;2023-05-07T06:42:03;16.90;99.90
27413;DHT22;14871;52.702;5.230;2023-05-07T06:44:30;16.90;99.90
27413;DHT22;14871;52.702;5.230;2023-05-07T06:46:56;16.80;99.90
27413;DHT22;14871;52.702;5.230;2023-05-07T06:49:22;16.90;99.90
27413;DHT22;14871;52.702;5.230;2023-05-07T06:51:47;16.90;99.90
27413;DHT22;14871;52.702;5.230;2023-05-07T06:54:13;16.90;99.90
27413;DHT22;14871;52.702;5.230;2023-05-07T06:56:39;16.80;99.90
27413;DHT22;14871;52.702;5.230;2023-05-07T06:59:04;16.80;99.90
27413;DHT22;14871;52.702;5.230;2023-05-07T07:01:30;16.90;99.90
27413;DHT22;14871;52.702;5.230;2023-05-07T07:03:56;17.00;99.90
27413;DHT22;14871;52.702;5.230;2023-05-07T07:06:21;17.10;99.90
27413;DHT22;14871;52.702;5.230;2023-05-07T07:08:47;17.20;99.90
27413;DHT22;14871;52.702;5.230;2023-05-07T07:11:12;17.20;99.90
27413;DHT22;14871;52.702;5.230;2023-05-07T07:13:38;17.30;99.90
27413;DHT22;14871;52.702;5.230;2023-05-07T07:16:05;17.30;99.90
27413;DHT22;14871;52.702;5.230;2023-05-07T07:18:31;17.30;99.90
27413;DHT22;14871;52.702;5.230;2023-05-07T07:20:57;17.60;99.90
27413;DHT22;14871;52.702;5.230;2023-05-07T07:23:23;17.70;99.90
27413;DHT22;14871;52.702;5.230;2023-05-07T07:25:48;17.90;99.90
27413;DHT22;14871;52.702;5.230;2023-05-07T07:28:14;17.90;99.90
27413;DHT22;14871;52.702;5.230;2023-05-07T07:30:40;17.90;99.90
27413;DHT22;14871;52.702;5.230;2023-05-07T07:33:05;17.90;99.90
27413;DHT22;14871;52.702;5.230;2023-05-07T07:35:34;18.00;99.90
27413;DHT22;14871;52.702;5.230;2023-05-07T07:38:00;17.90;99.90
27413;DHT22;14871;52.702;5.230;2023-05-07T07:40:27;17.60;99.90
27413;DHT22;14871;52.702;5.230;2023-05-07T07:42:53;17.70;99.90
27413;DHT22;14871;52.702;5.230;2023-05-07T07:45:20;17.70;99.90
27413;DHT22;14871;52.702;5.230;2023-05-07T07:47:45;17.80;99.90
27413;DHT22;14871;52.702;5.230;2023-05-07T07:50:11;17.90;99.90
27413;DHT22;14871;52.702;5.230;2023-05-07T07:52:37;17.60;99.90
27413;DHT22;14871;52.702;5.230;2023-05-07T07:55:03;17.80;99.90
27413;DHT22;14871;52.702;5.230;2023-05-07T07:57:30;17.60;99.90
27413;DHT22;14871;52.702;5.230;2023-05-07T07:59:55;17.70;99.90
27413;DHT22;14871;52.702;5.230;2023-05-07T08:02:21;17.80;99.90
27413;DHT22;14871;52.702;5.230;2023-05-07T08:04:46;17.60;99.90
27413;DHT22;14871;52.702;5.230;2023-05-07T08:07:12;17.70;99.90
27413;DHT22;14871;52.702;5.230;2023-05-07T08:09:39;17.90;99.90
27413;DHT22;14871;52.702;5.230;2023-05-07T08:12:06;18.20;99.90
27413;DHT22;14871;52.702;5.230;2023-05-07T08:14:32;18.10;99.90
27413;DHT22;14871;52.702;5.230;2023-05-07T08:16:57;18.30;99.90
27413;DHT22;14871;52.702;5.230;2023-05-07T08:19:23;18.70;99.90
27413;DHT22;14871;52.702;5.230;2023-05-07T08:21:49;19.00;99.90
27413;DHT22;14871;52.702;5.230;2023-05-07T08:24:16;19.20;99.90
27413;DHT22;14871;52.702;5.230;2023-05-07T08:26:42;19.40;99.90
27413;DHT22;14871;52.702;5.230;2023-05-07T08:29:08;19.60;99.90
27413;DHT22;14871;52.702;5.230;2023-05-07T08:31:33;19.60;99.90
27413;DHT22;14871;52.702;5.230;2023-05-07T08:33:59;19.50;99.90
27413;DHT22;14871;52.702;5.230;2023-05-07T08:36:25;19.40;99.90
27413;DHT22;14871;52.702;5.230;2023-05-07T08:38:51;19.50;99.90
27413;DHT22;14871;52.702;5.230;2023-05-07T08:41:17;19.70;99.90
27413;DHT22;14871;52.702;5.230;2023-05-07T08:43:47;19.20;99.90
27413;DHT22;14871;52.702;5.230;2023-05-07T08:46:20;19.30;99.90
27413;DHT22;14871;52.702;5.230;2023-05-07T08:48:49;19.40;99.90
27413;DHT22;14871;52.702;5.230;2023-05-07T08:51:18;19.10;99.90
27413;DHT22;14871;52.702;5.230;2023-05-07T08:53:46;19.10;99.90
27413;DHT22;14871;52.702;5.230;2023-05-07T08:56:16;19.30;99.90
27413;DHT22;14871;52.702;5.230;2023-05-07T08:58:43;19.30;99.90
27413;DHT22;14871;52.702;5.230;2023-05-07T09:01:13;19.80;99.90
27413;DHT22;14871;52.702;5.230;2023-05-07T09:03:41;19.70;99.90
27413;DHT22;14871;52.702;5.230;2023-05-07T09:06:07;19.90;99.90
27413;DHT22;14871;52.702;5.230;2023-05-07T09:08:33;20.30;99.90
27413;DHT22;14871;52.702;5.230;2023-05-07T09:10:59;20.80;99.90
27413;DHT22;14871;52.702;5.230;2023-05-07T09:13:27;21.00;99.90
27413;DHT22;14871;52.702;5.230;2023-05-07T09:15:53;21.40;99.90
27413;DHT22;14871;52.702;5.230;2023-05-07T09:18:20;21.50;99.90
27413;DHT22;14871;52.702;5.230;2023-05-07T09:20:45;21.70;99.90
27413;DHT22;14871;52.702;5.230;2023-05-07T09:23:11;21.70;99.90
27413;DHT22;14871;52.702;5.230;2023-05-07T09:25:37;21.40;99.90
27413;DHT22;14871;52.702;5.230;2023-05-07T09:28:04;21.50;99.90
27413;DHT22;14871;52.702;5.230;2023-05-07T09:30:33;21.50;99.90
27413;DHT22;14871;52.702;5.230;2023-05-07T09:33:00;21.70;99.90
27413;DHT22;14871;52.702;5.230;2023-05-07T09:35:26;22.00;99.90
27413;DHT22;14871;52.702;5.230;2023-05-07T09:37:57;22.10;99.90
27413;DHT22;14871;52.702;5.230;2023-05-07T09:40:29;22.00;99.90
27413;DHT22;14871;52.702;5.230;2023-05-07T09:42:55;22.10;99.90
27413;DHT22;14871;52.702;5.230;2023-05-07T09:45:25;22.20;99.90
27413;DHT22;14871;52.702;5.230;2023-05-07T09:47:57;22.50;99.90
27413;DHT22;14871;52.702;5.230;2023-05-07T09:50:29;22.20;99.90
27413;DHT22;14871;52.702;5.230;2023-05-07T09:52:56;22.20;99.90
27413;DHT22;14871;52.702;5.230;2023-05-07T09:55:22;22.10;99.90
27413;DHT22;14871;52.702;5.230;2023-05-07T09:57:52;22.10;99.90
27413;DHT22;14871;52.702;5.230;2023-05-07T10:00:20;22.20;99.90
27413;DHT22;14871;52.702;5.230;2023-05-07T10:02:48;22.10;99.90
27413;DHT22;14871;52.702;5.230;2023-05-07T10:05:15;22.30;99.90
27413;DHT22;14871;52.702;5.230;2023-05-07T10:07:42;22.50;99.90
27413;DHT22;14871;52.702;5.230;2023-05-07T10:10:09;22.70;99.90
27413;DHT22;14871;52.702;5.230;2023-05-07T10:12:36;22.60;99.90
27413;DHT22;14871;52.702;5.230;2023-05-07T10:15:09;22.80;99.90
27413;DHT22;14871;52.702;5.230;2023-05-07T10:17:40;23.00;99.90
27413;DHT22;14871;52.702;5.230;2023-05-07T10:20:07;23.20;99.90
27413;DHT22;14871;52.702;5.230;2023-05-07T10:22:41;22.90;99.90
27413;DHT22;14871;52.702;5.230;2023-05-07T10:25:28;23.00;99.90
27413;DHT22;14871;52.702;5.230;2023-05-07T10:27:58;23.10;99.90
27413;DHT22;14871;52.702;5.230;2023-05-07T10:30:40;23.30;99.90
27413;DHT22;14871;52.702;5.230;2023-05-07T10:33:10;23.40;99.90
27413;DHT22;14871;52.702;5.230;2023-05-07T10:35:42;23.70;99.90
27413;DHT22;14871;52.702;5.230;2023-05-07T10:38:08;23.90;99.90
27413;DHT22;14871;52.702;5.230;2023-05-07T10:40:35;23.70;99.90
27413;DHT22;14871;52.702;5.230;2023-05-07T10:43:03;23.90;99.90
27413;DHT22;14871;52.702;5.230;2023-05-07T10:45:32;24.00;99.90
27413;DHT22;14871;52.702;5.230;2023-05-07T10:50:35;24.80;99.90
27413;DHT22;14871;52.702;5.230;2023-05-07T10:56:23;24.30;99.90
27413;DHT22;14871;52.702;5.230;2023-05-07T10:58:37;24.10;99.90
27413;DHT22;14871;52.702;5.230;2023-05-07T11:01:03;24.50;99.90
27413;DHT22;14871;52.702;5.230;2023-05-07T11:03:29;24.50;99.90
27413;DHT22;14871;52.702;5.230;2023-05-07T11:06:15;24.70;99.90
27413;DHT22;14871;52.702;5.230;2023-05-07T11:08:56;24.90;99.90
27413;DHT22;14871;52.702;5.230;2023-05-07T11:11:44;24.90;99.90
27413;DHT22;14871;52.702;5.230;2023-05-07T11:14:10;25.30;99.90
27413;DHT22;14871;52.702;5.230;2023-05-07T11:16:37;25.40;99.90
27413;DHT22;14871;52.702;5.230;2023-05-07T11:19:04;25.60;99.90
27413;DHT22;14871;52.702;5.230;2023-05-07T11:21:40;25.70;99.90
27413;DHT22;14871;52.702;5.230;2023-05-07T11:24:08;25.90;99.50
27413;DHT22;14871;52.702;5.230;2023-05-07T11:26:48;25.70;99.20
27413;DHT22;14871;52.702;5.230;2023-05-07T11:29:18;25.50;99.20
27413;DHT22;14871;52.702;5.230;2023-05-07T11:31:51;25.20;99.30
27413;DHT22;14871;52.702;5.230;2023-05-07T11:34:24;25.50;99.90
27413;DHT22;14871;52.702;5.230;2023-05-07T11:36:51;25.80;99.90
27413;DHT22;14871;52.702;5.230;2023-05-07T11:39:31;26.20;99.90
27413;DHT22;14871;52.702;5.230;2023-05-07T11:41:59;26.30;98.80
27413;DHT22;14871;52.702;5.230;2023-05-07T11:44:25;26.30;98.80
27413;DHT22;14871;52.702;5.230;2023-05-07T11:47:04;26.30;98.20
27413;DHT22;14871;52.702;5.230;2023-05-07T11:49:30;25.90;98.50
27413;DHT22;14871;52.702;5.230;2023-05-07T11:51:56;26.10;98.40
27413;DHT22;14871;52.702;5.230;2023-05-07T11:54:22;26.30;98.60
27413;DHT22;14871;52.702;5.230;2023-05-07T11:56:47;26.50;98.40
27413;DHT22;14871;52.702;5.230;2023-05-07T11:59:17;26.80;98.20
27413;DHT22;14871;52.702;5.230;2023-05-07T12:01:45;27.00;97.30
27413;DHT22;14871;52.702;5.230;2023-05-07T12:04:11;27.00;97.40
27413;DHT22;14871;52.702;5.230;2023-05-07T12:06:37;27.10;96.40
27413;DHT22;14871;52.702;5.230;2023-05-07T12:09:04;27.00;96.30
27413;DHT22;14871;52.702;5.230;2023-05-07T12:11:32;27.00;96.80
27413;DHT22;14871;52.702;5.230;2023-05-07T12:13:58;26.90;96.20
27413;DHT22;14871;52.702;5.230;2023-05-07T12:16:24;27.00;96.00
27413;DHT22;14871;52.702;5.230;2023-05-07T12:18:50;27.10;95.90
27413;DHT22;14871;52.702;5.230;2023-05-07T12:21:18;27.20;95.50
27413;DHT22;14871;52.702;5.230;2023-05-07T12:23:44;27.10;95.40
27413;DHT22;14871;52.702;5.230;2023-05-07T12:26:10;27.00;95.00
27413;DHT22;14871;52.702;5.230;2023-05-07T12:28:37;26.90;94.70
27413;DHT22;14871;52.702;5.230;2023-05-07T12:31:04;27.20;94.40
27413;DHT22;14871;52.702;5.230;2023-05-07T12:33:30;27.30;94.60
27413;DHT22;14871;52.702;5.230;2023-05-07T12:35:58;27.50;95.30
27413;DHT22;14871;52.702;5.230;2023-05-07T12:38:36;27.70;94.70
27413;DHT22;14871;52.702;5.230;2023-05-07T12:41:02;27.80;93.90
27413;DHT22;14871;52.702;5.230;2023-05-07T12:43:29;27.60;94.00
27413;DHT22;14871;52.702;5.230;2023-05-07T12:45:56;27.80;93.80
27413;DHT22;14871;52.702;5.230;2023-05-07T12:48:23;27.60;93.40
27413;DHT22;14871;52.702;5.230;2023-05-07T12:50:53;27.30;93.10
27413;DHT22;14871;52.702;5.230;2023-05-07T12:53:24;27.10;92.70
27413;DHT22;14871;52.702;5.230;2023-05-07T12:55:52;26.80;93.90
27413;DHT22;14871;52.702;5.230;2023-05-07T13:00:51;26.60;93.60
27413;DHT22;14871;52.702;5.230;2023-05-07T13:03:34;26.50;94.70
27413;DHT22;14871;52.702;5.230;2023-05-07T13:06:03;26.50;94.10
27413;DHT22;14871;52.702;5.230;2023-05-07T13:08:31;26.50;94.60
27413;DHT22;14871;52.702;5.230;2023-05-07T13:10:59;26.50;94.40
27413;DHT22;14871;52.702;5.230;2023-05-07T13:13:28;26.40;94.60
27413;DHT22;14871;52.702;5.230;2023-05-07T13:15:54;26.00;94.20
27413;DHT22;14871;52.702;5.230;2023-05-07T13:18:25;25.70;94.30
27413;DHT22;14871;52.702;5.230;2023-05-07T13:20:51;25.50;94.60
27413;DHT22;14871;52.702;5.230;2023-05-07T13:23:17;25.20;94.90
27413;DHT22;14871;52.702;5.230;2023-05-07T13:25:43;24.90;95.40
27413;DHT22;14871;52.702;5.230;2023-05-07T13:28:12;24.60;96.50
27413;DHT22;14871;52.702;5.230;2023-05-07T13:30:38;24.60;97.00
27413;DHT22;14871;52.702;5.230;2023-05-07T13:33:03;24.60;96.50
27413;DHT22;14871;52.702;5.230;2023-05-07T13:35:29;24.50;97.20
27413;DHT22;14871;52.702;5.230;2023-05-07T13:37:55;24.70;97.00
27413;DHT22;14871;52.702;5.230;2023-05-07T13:40:23;24.70;96.80
27413;DHT22;14871;52.702;5.230;2023-05-07T13:42:49;24.50;97.00
27413;DHT22;14871;52.702;5.230;2023-05-07T13:45:16;24.40;96.90
27413;DHT22;14871;52.702;5.230;2023-05-07T13:47:42;24.30;97.50
27413;DHT22;14871;52.702;5.230;2023-05-07T13:50:09;24.30;97.60
27413;DHT22;14871;52.702;5.230;2023-05-07T13:52:35;24.40;97.90
27413;DHT22;14871;52.702;5.230;2023-05-07T13:55:01;24.60;98.00
27413;DHT22;14871;52.702;5.230;2023-05-07T13:57:27;24.80;97.90
27413;DHT22;14871;52.702;5.230;2023-05-07T13:59:52;25.10;97.90
27413;DHT22;14871;52.702;5.230;2023-05-07T14:02:18;24.90;96.80
27413;DHT22;14871;52.702;5.230;2023-05-07T14:04:44;25.10;96.30
27413;DHT22;14871;52.702;5.230;2023-05-07T14:07:11;25.00;96.60
27413;DHT22;14871;52.702;5.230;2023-05-07T14:09:37;25.40;96.70
27413;DHT22;14871;52.702;5.230;2023-05-07T14:12:04;25.80;96.10
27413;DHT22;14871;52.702;5.230;2023-05-07T14:14:30;26.20;95.90
27413;DHT22;14871;52.702;5.230;2023-05-07T14:16:59;26.40;94.90
27413;DHT22;14871;52.702;5.230;2023-05-07T14:19:25;26.50;95.00
27413;DHT22;14871;52.702;5.230;2023-05-07T14:21:51;26.80;94.80
27413;DHT22;14871;52.702;5.230;2023-05-07T14:24:17;27.00;93.50
27413;DHT22;14871;52.702;5.230;2023-05-07T14:26:43;27.00;93.00
27413;DHT22;14871;52.702;5.230;2023-05-07T14:29:09;26.70;93.00
27413;DHT22;14871;52.702;5.230;2023-05-07T14:31:34;26.50;93.50
27413;DHT22;14871;52.702;5.230;2023-05-07T14:34:00;26.40;94.30
27413;DHT22;14871;52.702;5.230;2023-05-07T14:36:26;26.60;94.00
27413;DHT22;14871;52.702;5.230;2023-05-07T14:38:52;26.60;93.80
27413;DHT22;14871;52.702;5.230;2023-05-07T14:41:24;26.90;93.70
27413;DHT22;14871;52.702;5.230;2023-05-07T14:43:50;27.00;93.50
27413;DHT22;14871;52.702;5.230;2023-05-07T14:46:17;27.10;93.70
27413;DHT22;14871;52.702;5.230;2023-05-07T14:48:44;27.20;94.10
27413;DHT22;14871;52.702;5.230;2023-05-07T14:51:10;27.30;92.90
27413;DHT22;14871;52.702;5.230;2023-05-07T14:53:37;27.30;93.40
27413;DHT22;14871;52.702;5.230;2023-05-07T14:56:03;27.50;93.00
27413;DHT22;14871;52.702;5.230;2023-05-07T14:58:28;27.50;93.10
27413;DHT22;14871;52.702;5.230;2023-05-07T15:00:54;27.60;93.00
27413;DHT22;14871;52.702;5.230;2023-05-07T15:03:20;27.70;93.20
27413;DHT22;14871;52.702;5.230;2023-05-07T15:05:47;27.80;92.10
27413;DHT22;14871;52.702;5.230;2023-05-07T15:08:12;27.80;91.50
27413;DHT22;14871;52.702;5.230;2023-05-07T15:10:38;27.50;90.80
27413;DHT22;14871;52.702;5.230;2023-05-07T15:13:07;27.40;90.90
27413;DHT22;14871;52.702;5.230;2023-05-07T15:15:33;27.30;90.40
27413;DHT22;14871;52.702;5.230;2023-05-07T15:17:59;27.00;90.90
27413;DHT22;14871;52.702;5.230;2023-05-07T15:20:26;26.80;91.30
27413;DHT22;14871;52.702;5.230;2023-05-07T15:22:52;26.90;91.50
27413;DHT22;14871;52.702;5.230;2023-05-07T15:25:17;26.70;92.00
27413;DHT22;14871;52.702;5.230;2023-05-07T15:27:43;26.60;92.00
27413;DHT22;14871;52.702;5.230;2023-05-07T15:30:09;26.40;92.40
27413;DHT22;14871;52.702;5.230;2023-05-07T15:32:37;26.50;92.60
27413;DHT22;14871;52.702;5.230;2023-05-07T15:35:04;26.40;92.50
27413;DHT22;14871;52.702;5.230;2023-05-07T15:37:33;26.20;92.40